LFGJ/DLE METAR and TAF weather

Enter ICAO airport designator
Station Type Date Time Source
LFGJ METAR 2019/04/25 16:30 UTC NOAA

LFGJ 251630Z AUTO VRB02KT 5000 RA BR FEW019/// BKN035/// OVC050/// ///TCU 09/07 Q1012 TEMPO 2000 +RA BKN006 SCT020CB


Station Type Date Time Source
LFGJ Decoded METAR 2019/04/25 16:30 UTC NOAA

Dole Tavaux, France (LFGJ) 47-02-34N 005-26-06E
Apr 25, 2019 - 12:30 PM EDT / 2019.04.25 1630 UTC
Wind: Variable at 2 MPH (2 KT):0
Visibility: 3 mile(s):0
Sky conditions: overcast
Weather: rain; mist; Cumulonimbus clouds, towering cumulus clouds observed
Temperature: 48 F (9 C)
Dew Point: 44 F (7 C)
Relative Humidity: 87%
Pressure (altimeter): 29.88 in. Hg (1012 hPa)
ob: LFGJ 251630Z AUTO VRB02KT 5000 RA BR FEW019/// BKN035/// OVC050/// ///TCU 09/07 Q1012 TEMPO 2000 +RA BKN006 SCT020CB
cycle: 16

Station Type Date Time Source
LFGJ TAF 2012/05/01 21:57 UTC NOAA

TAF
AMD TAF
AMD LFGJ 010355Z 3021/0106 18008KT 9999 FEW023 SCT035 BKN050
TEMPO 0102/0103 4000 -SHRA BR FEW012TCU BKN015
BECMG 0103/0104 VRB03KT 0200 FG VV///

Example: see airport list